Time;durP1;ratioP1;P1;durP2;ratioP2;P2;SDS_P1;SDS_P2;PMS_P1;PMS_P2;Temp;Humidity;BMP_temperature;BMP_pressure;BME280_temperature;BME280_humidity;BME280_pressure;Samples;Min_cycle;Max_cycle;Signal;HPM_P1;HPM_P2
2022/11/14 00:00:09;;;;;;;;;;;;;;;18.47;65.31;101711.36;2411495;73;50747;-75
2022/11/14 00:03:10;;;;;;;;;;;;;;;18.47;65.26;101706.86;2355588;73;49622;-76
2022/11/14 00:06:12;;;;;;;;;;;;;;;18.46;65.33;101709.69;2382279;73;50393;-75
2022/11/14 00:09:13;;;;;;;;;;;;;;;18.45;65.27;101706.17;2411406;72;50408;-75
2022/11/14 00:12:15;;;;;;;;;;;;;;;18.43;65.28;101707.33;2383190;73;50630;-75
2022/11/14 00:15:16;;;;;;;;;;;;;;;18.43;65.26;101705.48;2381537;73;51121;-75
2022/11/14 00:18:18;;;;;;;;;;;;;;;18.42;65.22;101696.24;2383484;73;51792;-76
2022/11/14 00:21:20;;;;;;;;;;;;;;;18.42;65.18;101698.45;2411606;73;51549;-77
2022/11/14 00:24:21;;;;;;;;;;;;;;;18.42;65.17;101702.47;2382115;73;51413;-75
2022/11/14 00:27:23;;;;;;;;;;;;;;;18.40;65.15;101692.41;2381489;73;49518;-76
2022/11/14 00:30:24;;;;;;;;;;;;;;;18.37;65.22;101688.70;2411438;73;50489;-75
2022/11/14 00:33:26;;;;;;;;;;;;;;;18.36;65.21;101684.83;2411166;73;51491;-75
2022/11/14 00:36:28;;;;;;;;;;;;;;;18.36;65.13;101680.30;2411520;73;50470;-75
2022/11/14 00:39:29;;;;;;;;;;;;;;;18.37;65.10;101679.32;2405710;73;50436;-76
2022/11/14 00:42:31;;;;;;;;;;;;;;;18.37;65.04;101676.64;2375180;73;50065;-75
2022/11/14 00:45:32;;;;;;;;;;;;;;;18.37;65.08;101677.11;2341638;75;50621;-76
2022/11/14 00:48:34;;;;;;;;;;;;;;;18.35;65.09;101677.30;2341838;75;51535;-76
2022/11/14 00:51:36;;;;;;;;;;;;;;;18.33;65.05;101675.26;2314174;75;51702;-75
2022/11/14 00:54:37;;;;;;;;;;;;;;;18.34;65.08;101680.98;2369186;75;52320;-75
2022/11/14 00:57:39;;;;;;;;;;;;;;;18.34;65.02;101662.22;2341932;75;50350;-75
2022/11/14 01:00:40;;;;;;;;;;;;;;;18.35;64.97;101662.55;2369267;75;50730;-74
2022/11/14 01:03:42;;;;;;;;;;;;;;;18.33;64.96;101659.69;2341807;74;51954;-75
2022/11/14 01:06:43;;;;;;;;;;;;;;;18.32;64.94;101654.84;2342091;74;51425;-76
2022/11/14 01:09:45;;;;;;;;;;;;;;;18.31;64.98;101648.28;2382417;73;51507;-75
2022/11/14 01:12:47;;;;;;;;;;;;;;;18.30;64.98;101646.61;2384813;73;52258;-75
2022/11/14 01:15:48;;;;;;;;;;;;;;;18.29;64.98;101648.45;2409709;74;51204;-75
2022/11/14 01:18:50;;;;;;;;;;;;;;;18.28;64.96;101642.73;2381788;74;51446;-76
2022/11/14 01:21:52;;;;;;;;;;;;;;;18.25;64.96;101645.73;2381751;74;50360;-75
2022/11/14 01:24:54;;;;;;;;;;;;;;;18.25;64.98;101635.85;2348704;74;50267;-75
2022/11/14 01:27:55;;;;;;;;;;;;;;;18.26;64.92;101632.67;2314607;74;51131;-75
2022/11/14 01:30:57;;;;;;;;;;;;;;;18.25;64.87;101625.14;2340701;75;51519;-76
2022/11/14 01:33:59;;;;;;;;;;;;;;;18.26;64.85;101617.94;2340669;75;51461;-76
2022/11/14 01:37:00;;;;;;;;;;;;;;;18.25;64.84;101625.64;2369631;74;51446;-76
2022/11/14 01:40:02;;;;;;;;;;;;;;;18.25;64.81;101621.62;2348319;73;49566;-76
2022/11/14 01:43:20;;;;;;;;;;;;;;;18.22;64.84;101613.40;2381747;73;50385;-76
2022/11/14 01:46:23;;;;;;;;;;;;;;;18.22;64.85;101604.53;2411787;73;50658;-75
2022/11/14 01:49:29;;;;;;;;;;;;;;;18.20;64.84;101609.20;2411751;73;51605;-75
2022/11/14 01:52:32;;;;;;;;;;;;;;;18.20;64.75;101605.18;2380748;73;52358;-76
2022/11/14 01:55:33;;;;;;;;;;;;;;;18.18;64.73;101599.13;2411471;73;50761;-76
2022/11/14 01:58:35;;;;;;;;;;;;;;;18.18;64.82;101597.80;2411610;73;51555;-74
2022/11/14 02:01:38;;;;;;;;;;;;;;;18.18;64.79;101592.44;2411671;73;50316;-75
2022/11/14 02:04:41;;;;;;;;;;;;;;;18.18;64.74;101593.77;2382121;73;51072;-75
2022/11/14 02:07:43;;;;;;;;;;;;;;;18.15;64.73;101596.77;2410596;73;52526;-74
2022/11/14 02:10:44;;;;;;;;;;;;;;;18.18;64.70;101589.76;2411881;72;51524;-76
2022/11/14 02:13:46;;;;;;;;;;;;;;;18.21;64.84;101582.74;2382208;73;51425;-77
2022/11/14 02:16:47;;;;;;;;;;;;;;;18.20;64.82;101575.72;2381829;73;50728;-76
2022/11/14 02:19:50;;;;;;;;;;;;;;;18.20;64.85;101577.05;2410491;74;50454;-75
2022/11/14 02:22:52;;;;;;;;;;;;;;;18.20;64.87;101571.70;2410332;74;50669;-75
2022/11/14 02:25:54;;;;;;;;;;;;;;;18.18;64.88;101565.14;2381816;74;50757;-76
2022/11/14 02:28:56;;;;;;;;;;;;;;;18.17;64.94;101569.34;2410353;73;52580;-76
2022/11/14 02:31:58;;;;;;;;;;;;;;;18.17;64.93;101568.00;2386633;73;51594;-76
2022/11/14 02:34:59;;;;;;;;;;;;;;;18.15;64.97;101559.28;2413968;73;51517;-76
2022/11/14 02:38:01;;;;;;;;;;;;;;;18.14;65.00;101550.91;2414089;73;51523;-76
2022/11/14 02:41:02;;;;;;;;;;;;;;;18.13;65.04;101555.91;2388082;73;50983;-75
2022/11/14 02:44:04;;;;;;;;;;;;;;;18.13;65.03;101550.55;2387661;73;50709;-74
2022/11/14 02:47:06;;;;;;;;;;;;;;;18.11;65.04;101542.69;2387795;73;51528;-75
2022/11/14 02:50:07;;;;;;;;;;;;;;;18.11;65.05;101537.81;2414076;73;51530;-75
2022/11/14 02:53:09;;;;;;;;;;;;;;;18.10;65.10;101534.30;2378876;72;50631;-76
2022/11/14 02:56:10;;;;;;;;;;;;;;;18.09;65.14;101535.81;2358166;73;50795;-76
2022/11/14 02:59:12;;;;;;;;;;;;;;;18.10;65.08;101533.47;2381579;73;51891;-76
2022/11/14 03:02:14;;;;;;;;;;;;;;;18.09;65.11;101530.45;2411718;73;51491;-76
2022/11/14 03:05:15;;;;;;;;;;;;;;;18.09;65.11;101522.42;2381149;73;50975;-76
2022/11/14 03:08:17;;;;;;;;;;;;;;;18.08;65.16;101524.73;2381516;73;50741;-76
2022/11/14 03:11:18;;;;;;;;;;;;;;;18.08;65.17;101513.52;2381135;73;50037;-76
2022/11/14 03:14:20;;;;;;;;;;;;;;;18.05;65.22;101514.68;2411547;73;50209;-76
2022/11/14 03:17:23;;;;;;;;;;;;;;;18.05;65.24;101505.81;2375227;72;50094;-74
2022/11/14 03:20:25;;;;;;;;;;;;;;;18.03;65.31;101507.33;2382578;73;51518;-76
2022/11/14 03:23:26;;;;;;;;;;;;;;;18.03;65.30;101510.48;2381780;74;50835;-75
2022/11/14 03:26:28;;;;;;;;;;;;;;;18.03;65.29;101507.80;2410513;74;50347;-76
2022/11/14 03:29:29;;;;;;;;;;;;;;;18.02;65.24;101512.33;2397438;73;50631;-77
2022/11/14 03:32:31;;;;;;;;;;;;;;;18.02;65.30;101507.47;2408099;73;50748;-75
2022/11/14 03:35:33;;;;;;;;;;;;;;;18.01;65.32;101505.30;2382534;73;51504;-77
2022/11/14 03:38:34;;;;;;;;;;;;;;;18.01;65.39;101505.30;2411542;73;50318;-76
2022/11/14 03:41:36;;;;;;;;;;;;;;;18.01;65.37;101500.45;2411718;73;50737;-76
2022/11/14 03:44:37;;;;;;;;;;;;;;;18.02;65.39;101498.09;2382497;73;52300;-77
2022/11/14 03:47:39;;;;;;;;;;;;;;;18.02;65.35;101483.38;2411553;73;51583;-76
2022/11/14 03:50:41;;;;;;;;;;;;;;;18.00;65.34;101483.52;2381714;73;51579;-76
2022/11/14 03:53:42;;;;;;;;;;;;;;;18.00;65.37;101476.83;2381607;73;50885;-75
2022/11/14 03:56:44;;;;;;;;;;;;;;;17.98;65.45;101480.66;2411741;73;51521;-75
2022/11/14 03:59:45;;;;;;;;;;;;;;;17.97;65.49;101473.13;2411613;73;51472;-76
2022/11/14 04:02:47;;;;;;;;;;;;;;;17.99;65.45;101468.47;2377459;74;51539;-76
2022/11/14 04:05:49;;;;;;;;;;;;;;;17.98;65.46;101462.78;2409715;73;50963;-76
2022/11/14 04:08:50;;;;;;;;;;;;;;;17.97;65.48;101469.11;2387520;73;51413;-75
2022/11/14 04:11:52;;;;;;;;;;;;;;;17.98;65.44;101468.61;2413932;73;51441;-76
2022/11/14 04:14:53;;;;;;;;;;;;;;;17.99;65.34;101459.09;2413785;73;52383;-76
2022/11/14 04:17:55;;;;;;;;;;;;;;;18.00;65.40;101454.06;2416124;73;52569;-76
2022/11/14 04:20:57;;;;;;;;;;;;;;;18.00;65.44;101448.70;2387700;73;51535;-77
2022/11/14 04:23:58;;;;;;;;;;;;;;;18.02;65.39;101446.72;2387764;73;51534;-77
2022/11/14 04:27:00;;;;;;;;;;;;;;;18.17;65.03;101447.47;2414028;73;50248;-77
2022/11/14 04:30:01;;;;;;;;;;;;;;;18.24;64.98;101453.87;2359995;73;52944;-76
2022/11/14 04:33:03;;;;;;;;;;;;;;;18.26;65.00;101446.48;2384949;73;51442;-76
2022/11/14 04:36:05;;;;;;;;;;;;;;;18.31;64.96;101451.36;2382448;73;51499;-76
2022/11/14 04:39:06;;;;;;;;;;;;;;;18.38;64.79;101449.22;2410254;74;51498;-76
2022/11/14 04:42:08;;;;;;;;;;;;;;;18.45;64.61;101447.56;2410002;74;52347;-76
2022/11/14 04:45:09;;;;;;;;;;;;;;;18.55;64.37;101447.44;2381846;74;51562;-77
2022/11/14 04:48:11;;;;;;;;;;;;;;;18.63;64.21;101451.98;2410513;74;51567;-76
2022/11/14 04:51:13;;;;;;;;;;;;;;;18.70;64.04;101446.28;2410499;74;50752;-76
2022/11/14 04:54:14;;;;;;;;;;;;;;;18.78;63.84;101441.47;2381289;74;51179;-78
2022/11/14 04:57:16;;;;;;;;;;;;;;;18.84;63.62;101438.97;2410473;74;51548;-76
2022/11/14 05:00:18;;;;;;;;;;;;;;;18.91;63.50;101435.14;2410453;74;50683;-76
2022/11/14 05:03:20;;;;;;;;;;;;;;;18.98;63.34;101429.94;2398886;73;50731;-77
2022/11/14 05:06:21;;;;;;;;;;;;;;;19.03;63.19;101427.08;2374829;73;52006;-76
2022/11/14 05:09:23;;;;;;;;;;;;;;;19.10;63.05;101428.61;2411671;73;51537;-75
2022/11/14 05:12:24;;;;;;;;;;;;;;;19.17;62.84;101422.91;2411951;73;52489;-75
2022/11/14 05:15:26;;;;;;;;;;;;;;;19.25;62.62;101431.46;2411484;73;51362;-76
2022/11/14 05:18:27;;;;;;;;;;;;;;;19.31;62.41;101430.27;2400331;73;49529;-75
2022/11/14 05:21:29;;;;;;;;;;;;;;;19.35;62.31;101429.44;2410210;73;50456;-77
2022/11/14 05:24:31;;;;;;;;;;;;;;;19.36;62.18;101435.97;2381741;74;50355;-75
2022/11/14 05:27:32;;;;;;;;;;;;;;;19.32;62.26;101421.23;2410484;74;50552;-77
2022/11/14 05:30:34;;;;;;;;;;;;;;;19.27;62.40;101420.06;2354509;74;49253;-76
2022/11/14 05:33:35;;;;;;;;;;;;;;;19.21;62.54;101421.55;2361503;74;50350;-75
2022/11/14 05:36:37;;;;;;;;;;;;;;;19.17;62.63;101424.77;2392284;73;50884;-75
2022/11/14 05:39:39;;;;;;;;;;;;;;;19.13;62.66;101425.58;2382394;73;50266;-76
2022/11/14 05:42:40;;;;;;;;;;;;;;;19.15;62.63;101424.91;2411481;73;50260;-75
2022/11/14 05:45:42;;;;;;;;;;;;;;;19.19;62.56;101426.75;2381273;73;50096;-73
2022/11/14 05:48:43;;;;;;;;;;;;;;;19.25;62.49;101422.91;2381448;73;50476;-76
2022/11/14 05:51:45;;;;;;;;;;;;;;;19.30;62.35;101415.19;2411915;73;50765;-76
2022/11/14 05:54:47;;;;;;;;;;;;;;;19.34;62.30;101415.67;2381971;73;51146;-76
2022/11/14 05:57:48;;;;;;;;;;;;;;;19.38;62.25;101413.00;2411890;73;50752;-76
2022/11/14 06:00:50;;;;;;;;;;;;;;;19.41;62.18;101413.16;2382863;73;50582;-77
2022/11/14 06:03:52;;;;;;;;;;;;;;;19.39;62.76;101404.44;2395260;73;50263;-76
2022/11/14 06:06:53;;;;;;;;;;;;;;;19.35;62.69;101406.13;2299726;76;50077;-78
2022/11/14 06:09:55;;;;;;;;;;;;;;;19.32;62.76;101415.86;2326699;76;51602;-75
2022/11/14 06:12:56;;;;;;;;;;;;;;;19.30;62.73;101407.14;2327538;76;51522;-75
2022/11/14 06:16:00;;;;;;;;;;;;;;;19.25;62.74;101408.14;2327306;76;51541;-75
2022/11/14 06:19:02;;;;;;;;;;;;;;;19.21;62.79;101402.77;2326468;76;50276;-76
2022/11/14 06:22:04;;;;;;;;;;;;;;;19.17;62.81;101396.08;2327146;76;50322;-77
2022/11/14 06:25:05;;;;;;;;;;;;;;;19.15;62.85;101395.41;2327119;76;50375;-76
2022/11/14 06:28:07;;;;;;;;;;;;;;;19.16;62.92;101399.75;2355607;74;50358;-76
2022/11/14 06:31:08;;;;;;;;;;;;;;;19.18;63.07;101396.41;2277114;76;49749;-78
2022/11/14 06:34:11;;;;;;;;;;;;;;;19.20;63.26;101403.79;2412267;73;50709;-79
2022/11/14 06:37:13;;;;;;;;;;;;;;;19.25;63.19;101396.07;2381038;73;51482;-78
2022/11/14 06:40:15;;;;;;;;;;;;;;;19.31;63.11;101407.97;2407026;74;50782;-78
2022/11/14 06:43:16;;;;;;;;;;;;;;;19.33;63.11;101400.08;2355973;74;50986;-78
2022/11/14 06:46:18;;;;;;;;;;;;;;;19.40;62.94;101402.11;2383128;74;51524;-78
2022/11/14 06:49:20;;;;;;;;;;;;;;;19.42;62.84;101400.93;2411975;74;51558;-79
2022/11/14 06:52:21;;;;;;;;;;;;;;;19.42;62.78;101397.38;2383179;74;50720;-78
2022/11/14 06:55:23;;;;;;;;;;;;;;;19.39;62.92;101404.44;2382300;73;51767;-78
2022/11/14 06:58:26;;;;;;;;;;;;;;;19.36;63.00;101397.56;2413209;73;50699;-78
2022/11/14 07:01:28;;;;;;;;;;;;;;;19.31;62.95;101395.38;2382908;73;51466;-77
2022/11/14 07:04:29;;;;;;;;;;;;;;;19.26;63.01;101399.08;2390947;73;51385;-77
2022/11/14 07:07:31;;;;;;;;;;;;;;;19.21;63.12;101400.09;2382951;74;50106;-77
2022/11/14 07:10:33;;;;;;;;;;;;;;;19.20;63.13;101395.73;2410710;74;50352;-77
2022/11/14 07:13:34;;;;;;;;;;;;;;;19.23;63.12;101402.61;2395270;73;50380;-77
2022/11/14 07:16:36;;;;;;;;;;;;;;;19.28;62.98;101409.66;2411887;73;50725;-78
2022/11/14 07:19:37;;;;;;;;;;;;;;;19.34;62.81;101406.28;2382797;73;50941;-78
2022/11/14 07:22:39;;;;;;;;;;;;;;;19.41;62.67;101423.89;2387942;73;50782;-78
2022/11/14 07:25:41;;;;;;;;;;;;;;;19.39;62.59;101411.14;2428125;73;50454;-78
2022/11/14 07:28:43;;;;;;;;;;;;;;;19.39;62.57;101403.09;2428492;73;50648;-78
2022/11/14 07:31:45;;;;;;;;;;;;;;;19.36;62.54;101401.08;2402179;73;50845;-78
2022/11/14 07:34:46;;;;;;;;;;;;;;;19.32;62.63;101390.38;2390087;73;50713;-78
2022/11/14 07:37:48;;;;;;;;;;;;;;;19.28;62.71;101395.73;2409982;73;51559;-78
2022/11/14 07:40:53;;;;;;;;;;;;;;;19.26;62.69;101392.87;2410679;74;50822;-78
2022/11/14 07:43:56;;;;;;;;;;;;;;;19.26;62.70;101396.39;2382153;73;50475;-78
2022/11/14 07:46:57;;;;;;;;;;;;;;;19.29;62.67;101389.37;2410922;74;51490;-77
2022/11/14 07:49:59;;;;;;;;;;;;;;;19.35;62.53;101387.84;2410308;74;50978;-77
2022/11/14 07:53:00;;;;;;;;;;;;;;;19.42;62.33;101396.90;2410936;74;51459;-78
2022/11/14 07:56:03;;;;;;;;;;;;;;;19.43;62.14;101392.36;2410412;74;50982;-79
2022/11/14 07:59:05;;;;;;;;;;;;;;;19.41;62.15;101391.69;2411189;74;50398;-79
2022/11/14 08:02:08;;;;;;;;;;;;;;;19.37;62.20;101381.81;2378609;73;50608;-79
2022/11/14 08:05:10;;;;;;;;;;;;;;;19.34;62.19;101386.16;2435403;72;50743;-79
2022/11/14 08:08:11;;;;;;;;;;;;;;;19.30;62.33;101391.55;2404906;72;51582;-79
2022/11/14 08:11:13;;;;;;;;;;;;;;;19.26;62.38;101388.34;2432050;72;51509;-78
2022/11/14 08:14:15;;;;;;;;;;;;;;;19.24;62.34;101380.99;2460215;72;51469;-77
2022/11/14 08:17:17;;;;;;;;;;;;;;;19.23;62.44;101380.64;2460254;72;50285;-78
2022/11/14 08:20:18;;;;;;;;;;;;;;;19.27;62.40;101385.18;2390861;72;51531;-77
2022/11/14 08:23:20;;;;;;;;;;;;;;;19.34;62.31;101386.16;2396604;73;50654;-78
2022/11/14 08:26:21;;;;;;;;;;;;;;;19.39;62.14;101379.77;2428640;73;51439;-78
2022/11/14 08:29:23;;;;;;;;;;;;;;;19.43;62.04;101378.44;2428442;73;50745;-78
2022/11/14 08:32:25;;;;;;;;;;;;;;;19.42;61.96;101368.72;2407271;73;50012;-79
2022/11/14 08:35:26;;;;;;;;;;;;;;;19.40;62.00;101376.09;2428185;73;51418;-78
2022/11/14 08:38:28;;;;;;;;;;;;;;;19.35;62.04;101369.90;2428541;73;51490;-78
2022/11/14 08:41:29;;;;;;;;;;;;;;;19.32;62.13;101367.56;2389240;73;51409;-78
2022/11/14 08:44:31;;;;;;;;;;;;;;;19.28;62.10;101356.82;2407213;73;49307;-78
2022/11/14 08:47:32;;;;;;;;;;;;;;;19.25;62.18;101365.22;2357714;74;50342;-77
2022/11/14 08:50:34;;;;;;;;;;;;;;;19.24;62.16;101368.05;2370270;74;50379;-77
2022/11/14 08:53:36;;;;;;;;;;;;;;;19.26;62.21;101366.88;2351018;74;50776;-77
2022/11/14 08:56:38;;;;;;;;;;;;;;;19.33;62.13;101366.54;2328063;76;50141;-78
2022/11/14 08:59:39;;;;;;;;;;;;;;;19.39;62.01;101359.64;2327987;76;51537;-77
2022/11/14 09:02:41;;;;;;;;;;;;;;;19.44;61.89;101356.45;2300776;76;50233;-78
2022/11/14 09:05:43;;;;;;;;;;;;;;;19.43;61.78;101358.82;2333198;75;51431;-78
2022/11/14 09:08:45;;;;;;;;;;;;;;;19.41;61.82;101367.03;2329335;74;52543;-78
2022/11/14 09:11:46;;;;;;;;;;;;;;;19.38;61.87;101359.33;2281740;75;51032;-78
2022/11/14 09:14:48;;;;;;;;;;;;;;;19.34;61.88;101349.45;2354540;75;51474;-77
2022/11/14 09:17:53;;;;;;;;;;;;;;;19.32;61.94;101351.97;2354535;75;51548;-79
2022/11/14 09:20:56;;;;;;;;;;;;;;;19.26;62.03;101350.78;2337908;74;51712;-78
2022/11/14 09:23:58;;;;;;;;;;;;;;;19.24;62.03;101356.84;2362552;75;50718;-78
2022/11/14 09:26:59;;;;;;;;;;;;;;;19.27;62.06;101354.33;2340469;74;51463;-77
2022/11/14 09:30:01;;;;;;;;;;;;;;;19.29;62.04;101342.41;2320230;76;51464;-79
2022/11/14 09:33:03;;;;;;;;;;;;;;;19.36;61.93;101338.02;2306498;76;51431;-77
2022/11/14 09:36:05;;;;;;;;;;;;;;;19.42;61.79;101341.02;2307259;76;51469;-78
2022/11/14 09:39:07;;;;;;;;;;;;;;;19.42;61.74;101334.31;2346626;76;50451;-78
2022/11/14 09:42:10;;;;;;;;;;;;;;;19.39;61.80;101354.28;2359419;74;50352;-78
2022/11/14 09:45:12;;;;;;;;;;;;;;;19.38;61.82;101347.76;2342027;75;51835;-78
2022/11/14 09:48:15;;;;;;;;;;;;;;;19.34;61.84;101344.56;2446030;71;50594;-78
2022/11/14 09:51:17;;;;;;;;;;;;;;;19.22;59.77;101336.05;2392896;72;51495;-77
2022/11/14 09:54:23;;;;;;;;;;;;;;;19.13;59.28;101327.67;2382230;73;51550;-77
2022/11/14 09:57:24;;;;;;;;;;;;;;;19.10;60.03;101323.99;2346489;73;51081;-78
2022/11/14 10:00:27;;;;;;;;;;;;;;;19.14;60.22;101323.48;2409127;73;50349;-78
2022/11/14 10:03:33;;;;;;;;;;;;;;;19.21;60.25;101317.42;2412692;73;51702;-78
2022/11/14 10:06:37;;;;;;;;;;;;;;;19.30;60.17;101317.25;2412881;73;51508;-77
2022/11/14 10:09:49;;;;;;;;;;;;;;;19.39;60.12;101310.51;2386928;73;52738;-77
2022/11/14 10:12:58;;;;;;;;;;;;;;;19.47;60.04;101303.77;2413095;73;50295;-77
2022/11/14 10:16:18;;;;;;;;;;;;;;;19.50;60.09;101298.08;2412776;73;50710;-77
2022/11/14 10:19:22;;;;;;;;;;;;;;;19.49;60.12;101288.34;2383295;73;51533;-77
2022/11/14 10:22:37;;;;;;;;;;;;;;;19.39;58.23;101295.75;2397842;73;51906;-78
2022/11/14 10:25:47;;;;;;;;;;;;;;;19.31;58.40;101306.83;2423985;73;50690;-77
2022/11/14 10:28:54;;;;;;;;;;;;;;;19.28;59.10;101302.33;2424125;73;50799;-77
2022/11/14 10:32:06;;;;;;;;;;;;;;;19.24;59.46;101307.21;2424018;73;51501;-76
2022/11/14 10:35:16;;;;;;;;;;;;;;;19.22;59.65;101305.20;2386451;73;51686;-77
2022/11/14 10:38:18;;;;;;;;;;;;;;;19.25;59.85;101295.97;2423925;73;50658;-77
2022/11/14 10:41:20;;;;;;;;;;;;;;;19.31;59.88;101288.05;2423940;73;51446;-78
2022/11/14 10:44:25;;;;;;;;;;;;;;;19.39;59.80;101278.30;2423795;73;50760;-77
2022/11/14 10:47:26;;;;;;;;;;;;;;;19.46;59.62;101284.15;2381357;73;52756;-77
2022/11/14 10:50:32;;;;;;;;;;;;;;;19.45;59.63;101274.95;2400183;73;50655;-77
2022/11/14 10:53:35;;;;;;;;;;;;;;;19.43;59.72;101263.55;2363820;73;51594;-77
2022/11/14 10:56:48;;;;;;;;;;;;;;;19.39;59.84;101271.59;2412497;73;50936;-77
2022/11/14 10:59:51;;;;;;;;;;;;;;;19.34;59.96;101270.28;2384279;73;50998;-76
2022/11/14 11:02:53;;;;;;;;;;;;;;;19.31;60.07;101266.58;2412738;73;51819;-77
2022/11/14 11:05:58;;;;;;;;;;;;;;;19.28;60.17;101264.76;2411831;73;50714;-77
2022/11/14 11:12:24;;;;;;;;;;;;;;;19.29;60.37;101241.80;2412152;73;24318;-77
2022/11/14 11:15:30;;;;;;;;;;;;;;;19.36;60.36;101237.89;2411615;73;51539;-76
2022/11/14 11:18:31;;;;;;;;;;;;;;;19.43;60.23;101240.73;2411949;73;22452;-77
2022/11/14 11:21:34;;;;;;;;;;;;;;;19.44;60.16;101243.22;2409187;72;51619;-77
2022/11/14 11:24:36;;;;;;;;;;;;;;;19.43;60.16;101240.73;2371221;73;51526;-76
2022/11/14 11:27:38;;;;;;;;;;;;;;;19.40;60.29;101237.06;2422425;72;50301;-76
2022/11/14 11:30:40;;;;;;;;;;;;;;;19.35;60.41;101238.41;2471824;72;50714;-76
2022/11/14 11:33:42;;;;;;;;;;;;;;;19.33;60.47;101218.12;2425272;72;50394;-75
2022/11/14 11:36:44;;;;;;;;;;;;;;;19.28;60.61;101219.98;2407085;73;49836;-77
2022/11/14 11:39:48;;;;;;;;;;;;;;;19.26;60.64;101216.63;2386381;73;52110;-76
2022/11/14 11:42:51;;;;;;;;;;;;;;;19.27;60.70;101202.22;2408888;73;51576;-76
2022/11/14 11:45:52;;;;;;;;;;;;;;;19.31;60.69;101196.81;2412206;73;51569;-77
2022/11/14 11:48:55;;;;;;;;;;;;;;;19.40;60.59;101203.52;2412557;73;51462;-77
2022/11/14 11:51:58;;;;;;;;;;;;;;;19.44;60.40;101206.16;2386449;73;51250;-76
2022/11/14 11:55:04;;;;;;;;;;;;;;;19.45;60.33;101202.48;2412241;73;51496;-76
2022/11/14 11:58:11;;;;;;;;;;;;;;;19.44;60.39;101203.48;2409375;73;50689;-76
2022/11/14 12:01:13;;;;;;;;;;;;;;;19.40;60.45;101194.95;2412473;73;50352;-75
2022/11/14 12:04:14;;;;;;;;;;;;;;;19.35;60.56;101195.47;2365862;73;50909;-77
2022/11/14 12:07:20;;;;;;;;;;;;;;;19.33;60.68;101190.78;2369595;75;50626;-77
2022/11/14 12:10:22;;;;;;;;;;;;;;;19.29;60.72;101184.11;2369528;75;51454;-75
2022/11/14 12:13:35;;;;;;;;;;;;;;;19.29;60.93;101187.27;2369443;74;50653;-76
2022/11/14 12:16:47;;;;;;;;;;;;;;;19.24;61.26;101194.53;2369668;74;52550;-76
2022/11/14 12:19:53;;;;;;;;;;;;;;;19.31;61.28;101190.11;2368811;75;51469;-75
2022/11/14 12:23:13;;;;;;;;;;;;;;;19.40;61.08;101192.27;2369434;74;50409;-76
2022/11/14 12:26:19;;;;;;;;;;;;;;;19.42;61.03;101187.56;2369537;75;50250;-76
2022/11/14 12:29:22;;;;;;;;;;;;;;;19.40;61.07;101187.41;2375784;73;49641;-75
2022/11/14 12:32:44;;;;;;;;;;;;;;;19.37;61.21;101193.97;2410599;74;50507;-77
2022/11/14 12:35:47;;;;;;;;;;;;;;;19.34;61.42;101186.24;2381755;74;50666;-76
2022/11/14 12:38:51;;;;;;;;;;;;;;;19.31;61.36;101187.42;2381970;74;50962;-76
2022/11/14 12:41:54;;;;;;;;;;;;;;;19.27;61.47;101180.75;2380838;74;52569;-77
2022/11/14 12:44:55;;;;;;;;;;;;;;;19.24;61.55;101174.88;2387817;73;52148;-78
2022/11/14 12:48:17;;;;;;;;;;;;;;;19.24;61.70;101175.74;2367833;74;51579;-77
2022/11/14 12:51:30;;;;;;;;;;;;;;;19.33;61.61;101180.05;2369824;73;50261;-77
2022/11/14 12:54:44;;;;;;;;;;;;;;;19.39;61.51;101175.81;2341734;75;51040;-77
2022/11/14 12:57:47;;;;;;;;;;;;;;;19.41;61.37;101171.63;2369539;74;50282;-78
2022/11/14 13:00:51;;;;;;;;;;;;;;;19.40;61.42;101169.97;2367381;73;51603;-76
2022/11/14 13:03:54;;;;;;;;;;;;;;;19.38;61.47;101166.63;2369776;75;51425;-76
2022/11/14 13:06:57;;;;;;;;;;;;;;;19.34;61.59;101165.64;2342001;74;52417;-77
2022/11/14 13:10:00;;;;;;;;;;;;;;;19.31;61.65;101173.18;2369982;73;50980;-77
2022/11/14 13:23:17;;;;;;;;;;;;;;;19.28;61.88;101160.95;2369620;75;22418;-76
2022/11/14 13:26:21;;;;;;;;;;;;;;;19.36;61.73;101153.36;2347130;75;50225;-76
2022/11/14 13:29:24;;;;;;;;;;;;;;;19.40;61.58;101145.30;2369250;75;50766;-77
2022/11/14 13:32:43;;;;;;;;;;;;;;;19.40;61.62;101156.05;2322896;73;49554;-77
2022/11/14 13:35:47;;;;;;;;;;;;;;;19.37;61.67;101153.72;2440263;71;50414;-79
2022/11/14 13:38:53;;;;;;;;;;;;;;;19.33;61.74;101155.89;2416826;72;51578;-75
2022/11/14 13:42:08;;;;;;;;;;;;;;;19.29;61.97;101149.70;2432924;72;51364;-76
2022/11/14 13:45:24;;;;;;;;;;;;;;;19.27;62.40;101147.73;2395098;73;51660;-77
2022/11/14 13:48:44;;;;;;;;;;;;;;;19.23;62.82;101139.69;2413237;73;51468;-77
2022/11/14 13:51:45;;;;;;;;;;;;;;;19.21;63.06;101137.68;2433483;72;50729;-76
2022/11/14 13:54:47;;;;;;;;;;;;;;;19.21;63.26;101130.46;2462635;72;50793;-77
2022/11/14 13:57:57;;;;;;;;;;;;;;;19.28;63.19;101130.09;2462811;72;52391;-77
2022/11/14 14:01:12;;;;;;;;;;;;;;;19.34;63.20;101121.36;2460394;72;50693;-77
2022/11/14 14:04:25;;;;;;;;;;;;;;;19.43;63.11;101121.30;2460915;72;50349;-76
2022/11/14 14:07:34;;;;;;;;;;;;;;;19.44;63.06;101125.14;2462386;72;50712;-77
2022/11/14 14:10:41;;;;;;;;;;;;;;;19.41;63.17;101126.01;2432008;72;49291;-77
2022/11/14 14:13:44;;;;;;;;;;;;;;;19.39;63.27;101130.20;2402614;73;50336;-77
2022/11/14 14:17:04;;;;;;;;;;;;;;;19.34;63.39;101125.39;2404916;73;50317;-77
2022/11/14 14:20:07;;;;;;;;;;;;;;;19.30;63.52;101120.03;2425316;72;50318;-76
2022/11/14 14:23:10;;;;;;;;;;;;;;;19.26;63.67;101117.36;2352753;74;51297;-76
2022/11/14 14:26:30;;;;;;;;;;;;;;;19.24;63.81;101114.04;2327261;74;50259;-76
2022/11/14 14:29:40;;;;;;;;;;;;;;;19.27;63.92;101117.70;2327579;76;50322;-77
2022/11/14 14:32:41;;;;;;;;;;;;;;;19.33;63.85;101112.13;2287816;76;50766;-77
2022/11/14 14:35:50;;;;;;;;;;;;;;;19.41;63.71;101109.91;2287708;77;50621;-77
2022/11/14 14:38:53;;;;;;;;;;;;;;;19.47;63.59;101103.34;2287939;77;52061;-77
2022/11/14 14:41:55;;;;;;;;;;;;;;;19.55;63.46;101097.91;2280753;76;50400;-77
2022/11/14 14:44:57;;;;;;;;;;;;;;;19.54;63.47;101096.73;2287781;77;51479;-76
2022/11/14 14:48:00;;;;;;;;;;;;;;;19.51;63.52;101094.41;2262201;77;52238;-77
2022/11/14 14:51:03;;;;;;;;;;;;;;;19.49;63.59;101091.06;2287065;77;51626;-76
2022/11/14 14:54:06;;;;;;;;;;;;;;;19.45;63.66;101091.11;2306053;77;22456;-76
2022/11/14 14:57:09;;;;;;;;;;;;;;;19.40;63.78;101094.83;2313412;77;51752;-76
2022/11/14 15:00:27;;;;;;;;;;;;;;;19.36;63.88;101088.45;2287175;77;52172;-76
2022/11/14 15:03:33;;;;;;;;;;;;;;;19.34;64.03;101081.11;2311981;77;50291;-77
2022/11/14 15:06:36;;;;;;;;;;;;;;;19.37;64.05;101081.27;2312868;77;51502;-76
2022/11/14 15:09:38;;;;;;;;;;;;;;;19.40;64.03;101072.85;2320213;76;51483;-75
2022/11/14 15:12:39;;;;;;;;;;;;;;;19.47;63.89;101077.84;2301361;76;50978;-77
2022/11/14 15:15:41;;;;;;;;;;;;;;;19.56;63.73;101081.29;2327224;76;51510;-77
2022/11/14 15:18:43;;;;;;;;;;;;;;;19.59;63.61;101083.09;2327577;76;50419;-77
2022/11/14 15:21:45;;;;;;;;;;;;;;;19.58;63.62;101082.78;2338682;74;52624;-77
2022/11/14 15:25:06;;;;;;;;;;;;;;;19.56;63.67;101086.66;2294138;76;51000;-77
2022/11/14 15:28:15;;;;;;;;;;;;;;;19.50;63.76;101084.19;2327838;76;51470;-76
2022/11/14 15:31:18;;;;;;;;;;;;;;;19.46;63.83;101078.84;2326910;76;51363;-76
2022/11/14 15:34:24;;;;;;;;;;;;;;;19.40;63.92;101078.73;2326807;76;51582;-75
2022/11/14 15:37:26;;;;;;;;;;;;;;;19.36;64.02;101072.35;2339614;74;51621;-75
2022/11/14 15:40:28;;;;;;;;;;;;;;;19.35;64.17;101069.86;2301875;76;50327;-76
2022/11/14 15:43:44;;;;;;;;;;;;;;;19.38;64.15;101071.36;2335206;74;50392;-76
2022/11/14 15:46:46;;;;;;;;;;;;;;;19.44;64.05;101066.61;2352095;75;51449;-76
2022/11/14 15:49:55;;;;;;;;;;;;;;;19.54;63.84;101059.16;2362971;73;51271;-76
2022/11/14 15:53:01;;;;;;;;;;;;;;;19.60;63.72;101070.53;2391586;73;50535;-76